createdAt,value
2019-03-16T00:00:11.736Z,3.33
2019-03-16T00:02:53.024Z,2.90
2019-03-16T00:05:34.623Z,3.27
2019-03-16T00:08:15.335Z,4.35
2019-03-16T00:10:56.960Z,3.83
2019-03-16T00:13:38.385Z,3.10
2019-03-16T00:16:19.232Z,4.10
2019-03-16T00:18:59.989Z,3.80
2019-03-16T00:21:41.634Z,3.00
2019-03-16T00:24:23.485Z,2.50
2019-03-16T00:27:04.648Z,3.50
2019-03-16T00:29:46.594Z,2.40
2019-03-16T00:32:28.124Z,3.83
2019-03-16T00:35:09.399Z,3.47
2019-03-16T00:37:50.437Z,2.42
2019-03-16T00:40:31.487Z,2.62
2019-03-16T00:43:12.648Z,3.90
2019-03-16T00:45:54.233Z,2.45
2019-03-16T00:48:35.631Z,3.42
2019-03-16T00:51:16.974Z,3.37
2019-03-16T00:53:58.654Z,2.58
2019-03-16T00:56:40.105Z,3.15
2019-03-16T00:59:21.225Z,2.60
2019-03-16T01:02:02.854Z,2.50
2019-03-16T01:04:43.981Z,3.40
2019-03-16T01:07:25.591Z,3.00
2019-03-16T01:10:06.825Z,1.92
2019-03-16T01:12:48.463Z,2.47
2019-03-16T01:15:30.088Z,2.60
2019-03-16T01:18:11.501Z,3.50
2019-03-16T01:20:53.112Z,2.80
2019-03-16T01:23:34.692Z,2.80
2019-03-16T01:26:15.962Z,2.45
2019-03-16T01:28:57.423Z,3.10
2019-03-16T01:31:38.849Z,2.40
2019-03-16T01:34:20.516Z,2.92
2019-03-16T01:37:01.195Z,2.75
2019-03-16T01:39:42.557Z,3.30
2019-03-16T01:42:24.069Z,2.58
2019-03-16T01:45:05.152Z,2.65
2019-03-16T01:47:46.328Z,2.50
2019-03-16T01:50:27.853Z,3.98
2019-03-16T01:53:09.336Z,2.10
2019-03-16T01:55:50.204Z,3.02
2019-03-16T01:58:32.079Z,2.80
2019-03-16T02:01:13.328Z,3.67
2019-03-16T02:03:54.476Z,3.25
2019-03-16T02:06:36.005Z,3.05
2019-03-16T02:09:16.781Z,3.47
2019-03-16T02:11:56.457Z,3.80
2019-03-16T02:14:45.443Z,2.87
2019-03-16T02:20:43.296Z,3.62
2019-03-16T02:23:46.058Z,3.20
2019-03-16T02:26:22.152Z,3.90
2019-03-16T02:29:48.904Z,6.12
2019-03-16T02:35:44.383Z,3.92
2019-03-16T02:38:36.905Z,3.95
2019-03-16T02:41:25.228Z,3.58
2019-03-16T02:44:03.909Z,3.40
2019-03-16T02:52:43.740Z,3.40
2019-03-16T02:55:32.336Z,3.77
2019-03-16T02:58:13.987Z,3.12
2019-03-16T03:00:55.654Z,2.70
2019-03-16T03:03:37.573Z,2.67
2019-03-16T03:06:19.137Z,2.52
2019-03-16T03:09:00.349Z,3.40
2019-03-16T03:11:42.017Z,2.72
2019-03-16T03:14:22.862Z,3.10
2019-03-16T03:17:04.449Z,4.15
2019-03-16T03:19:46.063Z,3.77
2019-03-16T03:22:27.464Z,3.85
2019-03-16T03:25:08.925Z,3.05
2019-03-16T03:27:49.629Z,2.95
2019-03-16T03:30:30.932Z,3.50
2019-03-16T03:33:12.124Z,3.47
2019-03-16T03:35:53.643Z,3.87
2019-03-16T03:38:34.365Z,4.00
2019-03-16T03:41:16.260Z,3.77
2019-03-16T03:43:57.453Z,3.27
2019-03-16T03:46:37.110Z,3.55
2019-03-16T03:49:25.723Z,4.05
2019-03-16T03:55:09.659Z,4.53
2019-03-16T03:57:58.746Z,3.10
2019-03-16T04:00:40.320Z,3.70
2019-03-16T04:03:21.960Z,2.83
2019-03-16T04:06:02.936Z,2.95
2019-03-16T04:08:44.360Z,3.33
2019-03-16T04:11:25.820Z,2.60
2019-03-16T04:14:07.290Z,3.90
2019-03-16T04:16:48.473Z,2.55
2019-03-16T04:19:30.063Z,3.20
2019-03-16T04:22:11.210Z,2.95
2019-03-16T04:24:52.862Z,2.83
2019-03-16T04:27:34.154Z,2.77
2019-03-16T04:30:15.758Z,3.20
2019-03-16T04:32:56.580Z,2.67
2019-03-16T04:35:37.921Z,3.70
2019-03-16T04:38:19.537Z,2.70
2019-03-16T04:41:01.045Z,2.80
2019-03-16T04:43:41.898Z,2.70
2019-03-16T04:46:22.694Z,2.90
2019-03-16T04:49:04.059Z,2.58
2019-03-16T04:51:45.627Z,2.47
2019-03-16T04:54:27.141Z,3.00
2019-03-16T04:57:08.614Z,2.45
2019-03-16T04:59:48.638Z,2.20
2019-03-16T05:02:37.221Z,2.58
2019-03-16T05:05:26.171Z,3.40
2019-03-16T05:08:15.092Z,2.70
2019-03-16T05:11:15.761Z,2.50
2019-03-16T05:16:50.022Z,2.90
2019-03-16T05:19:39.231Z,3.35
2019-03-16T05:22:41.871Z,2.77
2019-03-16T05:25:18.331Z,3.12
2019-03-16T05:28:07.329Z,2.95
2019-03-16T05:30:56.046Z,3.30
2019-03-16T05:36:56.074Z,3.25
2019-03-16T05:39:44.539Z,3.27
2019-03-16T05:42:47.085Z,2.70
2019-03-16T05:45:23.904Z,2.55
2019-03-16T05:48:12.729Z,3.98
2019-03-16T05:51:01.415Z,3.25
2019-03-16T05:54:01.796Z,3.70
2019-03-16T05:56:40.378Z,3.35
2019-03-16T05:59:21.819Z,2.70
2019-03-16T06:02:03.383Z,3.22
2019-03-16T06:04:44.707Z,2.98
2019-03-16T06:07:25.583Z,3.10
2019-03-16T06:10:07.185Z,2.70
2019-03-16T06:12:48.596Z,3.02
2019-03-16T06:15:30.283Z,3.50
2019-03-16T06:18:13.161Z,3.65
2019-03-16T06:20:53.897Z,2.85
2019-03-16T06:23:35.354Z,3.50
2019-03-16T06:26:16.751Z,3.37
2019-03-16T06:28:58.230Z,3.92
2019-03-16T06:31:39.760Z,3.17
2019-03-16T06:34:21.417Z,3.27
2019-03-16T06:37:02.727Z,2.92
2019-03-16T06:39:44.024Z,2.80
2019-03-16T06:42:25.230Z,3.50
2019-03-16T06:45:06.675Z,2.75
2019-03-16T06:47:47.472Z,2.50
2019-03-16T06:50:29.017Z,4.28
2019-03-16T06:53:10.722Z,2.92
2019-03-16T06:55:52.277Z,2.98
2019-03-16T06:58:33.989Z,2.83
2019-03-16T07:01:15.541Z,2.90
2019-03-16T07:03:56.256Z,3.15
2019-03-16T07:06:37.633Z,2.98
2019-03-16T07:09:18.981Z,4.17
2019-03-16T07:12:00.452Z,4.22
2019-03-16T07:14:41.610Z,4.58
2019-03-16T07:17:23.101Z,5.12
2019-03-16T07:20:04.719Z,6.37
2019-03-16T07:22:45.718Z,5.00
2019-03-16T07:25:27.066Z,5.42
2019-03-16T07:28:08.288Z,3.42
2019-03-16T07:30:49.733Z,3.67
2019-03-16T07:33:31.229Z,4.10
2019-03-16T07:36:12.629Z,4.05
2019-03-16T07:38:53.456Z,4.20
2019-03-16T07:41:34.977Z,4.50
2019-03-16T07:44:15.733Z,3.70
2019-03-16T07:46:57.159Z,3.65
2019-03-16T07:49:39.113Z,5.28
2019-03-16T07:52:19.878Z,4.83
2019-03-16T07:55:01.514Z,3.83
2019-03-16T07:57:42.869Z,5.10
2019-03-16T08:00:23.640Z,4.45
2019-03-16T08:03:05.005Z,4.72
2019-03-16T08:05:46.107Z,4.53
2019-03-16T08:08:26.964Z,5.10
2019-03-16T08:11:07.790Z,4.72
2019-03-16T08:13:48.516Z,4.80
2019-03-16T08:16:29.687Z,5.03
2019-03-16T08:19:10.987Z,5.05
2019-03-16T08:21:52.120Z,4.65
2019-03-16T08:24:33.997Z,4.55
2019-03-16T08:27:15.082Z,4.30
2019-03-16T08:29:54.736Z,3.92
2019-03-16T08:32:43.328Z,3.75
2019-03-16T08:35:32.412Z,4.35
2019-03-16T08:38:21.079Z,4.62
2019-03-16T08:44:05.796Z,3.55
2019-03-16T08:49:49.947Z,3.00
2019-03-16T08:52:38.980Z,3.90
2019-03-16T08:55:27.568Z,3.80
2019-03-16T09:01:04.200Z,3.10
2019-03-16T09:03:45.267Z,3.58
2019-03-16T09:06:26.755Z,3.00
2019-03-16T09:09:07.123Z,2.35
2019-03-16T09:11:58.255Z,3.05
2019-03-16T09:15:01.200Z,2.83
2019-03-16T09:23:27.573Z,2.75
2019-03-16T09:26:16.504Z,2.60
2019-03-16T09:29:14.347Z,2.80
2019-03-16T09:38:00.312Z,2.60
2019-03-16T09:40:48.973Z,2.10
2019-03-16T09:46:37.047Z,2.58
2019-03-16T09:49:25.986Z,2.27
2019-03-16T09:52:14.890Z,2.52
2019-03-16T09:55:03.579Z,2.27
2019-03-16T09:57:44.687Z,2.67
2019-03-16T10:00:26.149Z,3.37
2019-03-16T10:03:07.448Z,3.35
2019-03-16T10:05:49.180Z,2.50
2019-03-16T10:08:30.428Z,2.50
2019-03-16T10:11:11.416Z,3.10
2019-03-16T10:13:52.865Z,3.62
2019-03-16T10:16:34.278Z,2.05
2019-03-16T10:19:15.529Z,3.60
2019-03-16T10:21:56.277Z,2.00
2019-03-16T10:24:37.827Z,1.95
2019-03-16T10:27:19.393Z,2.10
2019-03-16T10:30:00.533Z,2.37
2019-03-16T10:32:41.355Z,2.00
2019-03-16T10:35:22.916Z,1.82
2019-03-16T10:38:02.820Z,1.62
2019-03-16T10:40:51.430Z,1.75
2019-03-16T10:49:44.532Z,1.92
2019-03-16T10:55:42.345Z,1.35
2019-03-16T11:07:34.706Z,2.10
2019-03-16T11:10:23.368Z,1.50
2019-03-16T11:13:12.528Z,2.20
2019-03-16T11:16:01.209Z,2.10
2019-03-16T11:18:50.145Z,2.35
2019-03-16T11:21:38.750Z,2.60
2019-03-16T11:24:27.358Z,2.70
2019-03-16T11:27:17.394Z,2.45
2019-03-16T11:30:21.174Z,2.80
2019-03-16T11:32:57.768Z,2.20
2019-03-16T11:35:46.374Z,2.35
2019-03-16T11:38:34.947Z,2.70
2019-03-16T11:41:16.201Z,2.58
2019-03-16T11:43:56.170Z,4.50
2019-03-16T11:46:44.776Z,2.95
2019-03-16T11:49:33.711Z,2.05
2019-03-16T11:52:22.425Z,2.55
2019-03-16T11:55:11.029Z,2.02
2019-03-16T11:57:59.618Z,2.20
2019-03-16T12:00:48.542Z,2.62
2019-03-16T12:03:37.279Z,3.62
2019-03-16T12:06:39.876Z,1.90
2019-03-16T12:09:16.267Z,1.98
2019-03-16T12:12:04.874Z,2.65
2019-03-16T12:14:53.481Z,2.15
2019-03-16T12:17:42.091Z,2.12
2019-03-16T12:23:54.301Z,2.05
2019-03-16T12:26:31.206Z,1.55
2019-03-16T12:29:34.580Z,1.80
2019-03-16T12:32:11.171Z,1.57
2019-03-16T12:35:00.176Z,1.98
2019-03-16T12:37:50.937Z,1.70
2019-03-16T12:43:49.190Z,2.20
2019-03-16T12:46:37.832Z,1.95
2019-03-16T12:49:26.499Z,2.47
2019-03-16T12:55:09.840Z,2.60
2019-03-16T12:57:58.524Z,2.55
2019-03-16T13:00:58.910Z,3.25
2019-03-16T13:03:37.747Z,2.90
2019-03-16T13:09:36.212Z,2.60
2019-03-16T13:12:24.805Z,2.33
2019-03-16T13:15:13.753Z,2.62
2019-03-16T13:18:02.371Z,2.15
2019-03-16T13:26:59.083Z,2.50
2019-03-16T13:29:58.397Z,2.00
2019-03-16T13:32:38.420Z,1.98
2019-03-16T13:35:20.008Z,1.95
2019-03-16T13:38:00.804Z,2.02
2019-03-16T13:40:42.084Z,2.00
2019-03-16T13:43:23.463Z,2.22
2019-03-16T13:46:05.041Z,2.15
2019-03-16T13:48:46.431Z,1.70
2019-03-16T13:51:27.919Z,2.02
2019-03-16T13:54:08.721Z,1.50
2019-03-16T13:56:49.970Z,1.92
2019-03-16T13:59:31.563Z,1.77
2019-03-16T14:02:12.999Z,1.32
2019-03-16T14:04:54.439Z,1.50
2019-03-16T14:07:36.038Z,2.00
2019-03-16T14:10:17.581Z,1.90
2019-03-16T14:12:58.992Z,1.67
2019-03-16T14:15:39.940Z,2.10
2019-03-16T14:18:21.396Z,1.75
2019-03-16T14:21:02.998Z,1.98
2019-03-16T14:23:44.476Z,1.95
2019-03-16T14:26:25.898Z,1.75
2019-03-16T14:29:07.517Z,1.30
2019-03-16T14:31:48.926Z,1.55
2019-03-16T14:34:30.380Z,1.60
2019-03-16T14:37:11.765Z,1.50
2019-03-16T14:39:52.903Z,2.17
2019-03-16T14:42:33.946Z,1.80
2019-03-16T14:45:15.240Z,2.20
2019-03-16T14:47:56.324Z,2.65
2019-03-16T14:50:37.850Z,1.95
2019-03-16T14:53:19.304Z,2.83
2019-03-16T14:56:00.242Z,2.22
2019-03-16T14:58:41.349Z,2.52
2019-03-16T15:01:22.639Z,2.80
2019-03-16T15:04:04.152Z,3.45
2019-03-16T15:06:45.573Z,3.65
2019-03-16T15:09:27.026Z,3.40
2019-03-16T15:12:08.817Z,4.17
2019-03-16T15:14:49.748Z,4.10
2019-03-16T15:17:31.111Z,4.20
2019-03-16T15:20:12.704Z,3.42
2019-03-16T15:22:53.770Z,4.90
2019-03-16T15:25:34.950Z,4.60
2019-03-16T15:28:16.396Z,4.30
2019-03-16T15:30:57.129Z,4.80
2019-03-16T15:33:38.503Z,4.70
2019-03-16T15:36:20.013Z,4.05
2019-03-16T15:39:01.297Z,4.03
2019-03-16T15:41:42.751Z,3.70
2019-03-16T15:44:24.107Z,3.37
2019-03-16T15:47:05.959Z,3.05
2019-03-16T15:49:47.356Z,3.17
2019-03-16T15:52:28.823Z,2.60
2019-03-16T15:55:08.868Z,2.47
2019-03-16T16:03:48.556Z,2.15
2019-03-16T16:12:20.421Z,3.20
2019-03-16T16:15:01.379Z,2.52
2019-03-16T16:17:42.305Z,2.33
2019-03-16T16:20:23.849Z,2.77
2019-03-16T16:23:04.618Z,2.10
2019-03-16T16:25:44.654Z,2.20
2019-03-16T16:31:27.794Z,2.00
2019-03-16T16:34:16.858Z,2.30
2019-03-16T16:40:14.675Z,1.75
2019-03-16T16:43:17.330Z,2.10
2019-03-16T16:49:02.817Z,1.92
2019-03-16T16:52:05.407Z,2.15
2019-03-16T16:54:41.798Z,2.17
2019-03-16T16:57:30.445Z,1.92
2019-03-16T17:00:19.431Z,2.30
2019-03-16T17:03:08.072Z,1.90
2019-03-16T17:06:08.829Z,1.90
2019-03-16T17:08:47.349Z,2.65
2019-03-16T17:11:36.219Z,2.12
2019-03-16T17:14:17.227Z,2.30
2019-03-16T17:16:58.859Z,2.42
2019-03-16T17:19:40.382Z,2.22
2019-03-16T17:22:21.327Z,2.25
2019-03-16T17:25:02.697Z,2.27
2019-03-16T17:27:44.303Z,3.20
2019-03-16T17:30:26.056Z,2.12
2019-03-16T17:33:07.182Z,2.20
2019-03-16T17:35:48.413Z,3.55
2019-03-16T17:38:29.259Z,1.98
2019-03-16T17:41:11.208Z,2.10
2019-03-16T17:43:52.331Z,1.70
2019-03-16T17:46:33.660Z,3.10
2019-03-16T17:49:14.508Z,2.00
2019-03-16T17:51:58.109Z,2.30
2019-03-16T17:54:38.788Z,2.37
2019-03-16T17:57:19.527Z,2.20
2019-03-16T18:00:00.633Z,1.80
2019-03-16T18:02:51.378Z,2.08
2019-03-16T18:05:24.702Z,2.05
2019-03-16T18:08:06.133Z,2.02
2019-03-16T18:10:47.731Z,1.98
2019-03-16T18:13:28.510Z,2.10
2019-03-16T18:16:10.191Z,1.70
2019-03-16T18:18:51.673Z,1.80
2019-03-16T18:21:33.218Z,2.08
2019-03-16T18:24:14.477Z,1.98
2019-03-16T18:26:55.881Z,1.92
2019-03-16T18:29:37.067Z,2.17
2019-03-16T18:32:18.227Z,2.05
2019-03-16T18:34:59.668Z,2.17
2019-03-16T18:37:40.365Z,1.90
2019-03-16T18:40:21.867Z,1.80
2019-03-16T18:43:03.009Z,1.90
2019-03-16T18:45:44.235Z,2.10
2019-03-16T18:48:25.844Z,2.00
2019-03-16T18:51:07.748Z,1.85
2019-03-16T18:53:48.709Z,2.52
2019-03-16T18:56:29.486Z,2.37
2019-03-16T18:59:10.921Z,2.25
2019-03-16T19:01:52.466Z,2.22
2019-03-16T19:04:33.824Z,2.10
2019-03-16T19:07:15.321Z,1.90
2019-03-16T19:09:56.845Z,2.02
2019-03-16T19:12:38.631Z,2.52
2019-03-16T19:15:19.899Z,2.33
2019-03-16T19:18:01.351Z,2.30
2019-03-16T19:20:42.712Z,1.95
2019-03-16T19:23:24.288Z,2.67
2019-03-16T19:26:05.501Z,2.37
2019-03-16T19:28:47.010Z,2.00
2019-03-16T19:31:27.663Z,1.80
2019-03-16T19:34:09.209Z,2.50
2019-03-16T19:36:50.548Z,2.80
2019-03-16T19:39:32.004Z,2.40
2019-03-16T19:42:13.182Z,3.05
2019-03-16T19:44:54.644Z,2.30
2019-03-16T19:47:36.135Z,2.15
2019-03-16T19:50:17.622Z,2.92
2019-03-16T19:52:59.093Z,2.80
2019-03-16T19:55:40.604Z,2.98
2019-03-16T19:58:21.804Z,2.65
2019-03-16T20:01:03.367Z,3.15
2019-03-16T20:03:45.002Z,2.92
2019-03-16T20:06:26.324Z,2.80
2019-03-16T20:09:07.233Z,2.77
2019-03-16T20:12:14.979Z,3.00
2019-03-16T20:15:15.502Z,3.25
2019-03-16T20:17:53.949Z,3.20
2019-03-16T20:20:56.850Z,3.15
2019-03-16T20:23:33.187Z,3.02
2019-03-16T20:26:21.829Z,2.95
2019-03-16T20:29:24.793Z,2.90
2019-03-16T20:32:01.246Z,3.30
2019-03-16T20:34:49.881Z,2.90
2019-03-16T20:37:38.681Z,3.25
2019-03-16T20:40:27.389Z,2.98
2019-03-16T20:43:16.794Z,2.50
2019-03-16T20:46:05.393Z,3.20
2019-03-16T20:48:54.559Z,2.92
2019-03-16T20:54:38.703Z,2.83
2019-03-16T20:57:27.717Z,3.22
2019-03-16T21:00:16.811Z,3.40
2019-03-16T21:09:03.309Z,2.50
2019-03-16T21:11:45.236Z,3.10
2019-03-16T21:14:27.058Z,2.80
2019-03-16T21:17:08.240Z,3.27
2019-03-16T21:19:49.636Z,3.08
2019-03-16T21:22:36.409Z,3.55
2019-03-16T21:25:14.320Z,2.85
2019-03-16T21:27:55.615Z,3.40
2019-03-16T21:30:36.822Z,3.25
2019-03-16T21:33:28.922Z,3.47
2019-03-16T21:36:01.732Z,3.45
2019-03-16T21:38:43.239Z,3.17
2019-03-16T21:41:23.128Z,3.22
2019-03-16T21:44:24.147Z,3.12
2019-03-16T21:47:03.006Z,3.05
2019-03-16T21:49:51.899Z,3.20
2019-03-16T21:55:49.783Z,3.05
2019-03-16T21:58:38.703Z,3.75
2019-03-16T22:07:22.326Z,2.90
2019-03-16T22:10:11.082Z,4.22
2019-03-16T22:15:55.131Z,3.17
2019-03-16T22:18:43.835Z,2.65
2019-03-16T22:21:32.549Z,2.98
2019-03-16T22:24:21.310Z,2.62
2019-03-16T22:27:10.281Z,3.08
2019-03-16T22:29:58.910Z,3.77
2019-03-16T22:32:47.601Z,3.47
2019-03-16T22:38:45.480Z,2.72
2019-03-16T22:41:34.032Z,3.50
2019-03-16T22:44:22.637Z,3.52
2019-03-16T22:47:23.225Z,3.00
2019-03-16T22:50:01.865Z,2.98
2019-03-16T22:52:50.574Z,2.65
2019-03-16T22:55:39.135Z,2.92
2019-03-16T22:58:27.828Z,3.50
2019-03-16T23:01:16.416Z,3.27
2019-03-16T23:07:00.886Z,2.58
2019-03-16T23:09:42.515Z,3.70
2019-03-16T23:12:24.008Z,3.05
2019-03-16T23:15:04.811Z,2.77
2019-03-16T23:17:46.304Z,3.25
2019-03-16T23:20:27.758Z,2.60
2019-03-16T23:23:09.332Z,3.00
2019-03-16T23:25:50.299Z,2.77
2019-03-16T23:28:31.591Z,2.95
2019-03-16T23:31:12.477Z,2.40
2019-03-16T23:43:01.818Z,2.72
2019-03-16T23:45:38.262Z,2.52
2019-03-16T23:51:43.150Z,2.77
2019-03-16T23:54:31.787Z,2.58
2019-03-16T23:57:20.880Z,1.92
